Time;durP1;ratioP1;P1;durP2;ratioP2;P2;SDS_P1;SDS_P2;PMS_P1;PMS_P2;Temp;Humidity;BMP_temperature;BMP_pressure;BME280_temperature;BME280_humidity;BME280_pressure;Samples;Min_cycle;Max_cycle;Signal;HPM_P1;HPM_P2
2022/03/31 00:00:50;;;;;;;1.60;0.82;;;4.30;92.50;;;;;;5036832;28;92416;-71
2022/03/31 00:03:19;;;;;;;3.35;1.15;;;4.20;92.40;;;;;;5001633;28;94865;-71
2022/03/31 00:05:50;;;;;;;3.92;1.13;;;4.30;92.50;;;;;;5036511;28;92869;-71
2022/03/31 00:08:19;;;;;;;2.50;1.02;;;4.30;92.30;;;;;;5019015;28;92380;-71
2022/03/31 00:10:52;;;;;;;2.92;1.00;;;4.30;92.50;;;;;;5036551;28;92428;-71
2022/03/31 00:13:27;;;;;;;3.15;1.20;;;4.40;92.80;;;;;;5035086;28;95656;-71
2022/03/31 00:15:56;;;;;;;4.85;1.17;;;4.50;93.10;;;;;;5036377;28;95365;-71
2022/03/31 00:18:24;;;;;;;3.00;1.20;;;4.50;92.90;;;;;;5017942;28;92581;-71
2022/03/31 00:20:51;;;;;;;2.33;1.05;;;4.50;92.80;;;;;;5017575;28;105547;-71
2022/03/31 00:23:18;;;;;;;3.63;1.13;;;4.60;93.00;;;;;;5036259;28;93222;-71
2022/03/31 00:25:45;;;;;;;2.97;1.40;;;4.60;92.60;;;;;;5018284;28;93993;-71
2022/03/31 00:28:12;;;;;;;2.58;1.33;;;4.70;92.50;;;;;;5018398;28;92493;-71
2022/03/31 00:30:40;;;;;;;1.98;1.25;;;4.70;92.60;;;;;;5036177;28;92154;-71
2022/03/31 00:33:08;;;;;;;4.38;1.27;;;4.70;92.50;;;;;;5017456;28;101783;-71
2022/03/31 00:35:35;;;;;;;3.58;1.20;;;4.70;92.10;;;;;;5035777;28;92918;-71
2022/03/31 00:38:02;;;;;;;3.90;1.67;;;4.70;92.10;;;;;;5034969;28;95038;-71
2022/03/31 00:40:30;;;;;;;2.70;1.48;;;4.70;92.10;;;;;;5000927;28;94602;-71
2022/03/31 00:42:58;;;;;;;4.72;1.38;;;4.80;92.40;;;;;;5017501;28;95959;-71
2022/03/31 00:45:32;;;;;;;3.42;1.55;;;4.70;91.80;;;;;;5017593;28;94290;-71
2022/03/31 00:47:59;;;;;;;3.03;2.00;;;4.70;92.20;;;;;;5018463;28;92653;-71
2022/03/31 00:50:27;;;;;;;4.95;2.30;;;4.70;92.40;;;;;;5017508;28;92497;-71
2022/03/31 00:52:54;;;;;;;2.45;1.70;;;4.70;92.50;;;;;;5035838;28;93379;-71
2022/03/31 00:55:44;;;;;;;5.13;2.10;;;4.70;92.10;;;;;;5021023;28;92848;-71
2022/03/31 00:58:11;;;;;;;4.57;2.05;;;4.70;92.60;;;;;;5017652;28;92540;-71
2022/03/31 01:00:38;;;;;;;4.78;2.55;;;4.70;92.40;;;;;;5035541;28;92450;-71
2022/03/31 01:03:06;;;;;;;4.78;2.28;;;4.70;92.50;;;;;;5016047;28;98077;-71
2022/03/31 01:05:37;;;;;;;4.47;2.35;;;4.70;92.70;;;;;;5000472;28;98212;-71
2022/03/31 01:08:05;;;;;;;3.88;2.42;;;4.70;92.50;;;;;;5001059;28;92502;-71
2022/03/31 01:10:32;;;;;;;4.05;2.17;;;4.70;92.80;;;;;;5017635;28;92508;-71
2022/03/31 01:13:09;;;;;;;3.78;2.30;;;4.60;92.60;;;;;;5017958;28;93193;-71
2022/03/31 01:15:36;;;;;;;2.92;2.03;;;4.70;93.00;;;;;;5035676;28;93153;-71
2022/03/31 01:18:03;;;;;;;5.97;2.58;;;4.70;93.00;;;;;;5000895;28;92557;-71
2022/03/31 01:20:30;;;;;;;5.15;2.58;;;4.60;92.80;;;;;;5035592;28;91731;-71
2022/03/31 01:22:58;;;;;;;3.08;2.58;;;4.60;92.70;;;;;;5000560;28;95734;-71
2022/03/31 01:25:26;;;;;;;4.57;3.40;;;4.50;93.00;;;;;;5035299;28;93003;-71
2022/03/31 01:27:53;;;;;;;6.10;3.42;;;4.50;93.10;;;;;;5034422;28;94865;-71
2022/03/31 01:30:22;;;;;;;3.85;3.22;;;4.40;93.50;;;;;;5035376;28;92472;-71
2022/03/31 01:32:50;;;;;;;5.25;2.90;;;4.50;94.00;;;;;;5016906;28;93207;-71
2022/03/31 01:35:17;;;;;;;3.60;2.95;;;4.50;94.00;;;;;;5016632;28;96343;-71
2022/03/31 01:37:44;;;;;;;5.38;3.40;;;4.50;94.00;;;;;;5017357;28;93286;-71
2022/03/31 01:40:12;;;;;;;4.80;2.95;;;4.40;93.90;;;;;;5000732;28;92438;-71
2022/03/31 01:42:40;;;;;;;5.68;3.25;;;4.50;94.30;;;;;;5016617;28;95760;-71
2022/03/31 01:45:10;;;;;;;4.57;2.40;;;4.40;94.10;;;;;;5017593;28;93087;-71
2022/03/31 01:47:37;;;;;;;6.10;4.10;;;4.40;94.00;;;;;;5017106;28;92465;-71
2022/03/31 01:50:09;;;;;;;5.60;3.38;;;4.30;94.10;;;;;;5016873;28;93640;-71
2022/03/31 01:52:37;;;;;;;5.47;4.05;;;4.30;94.00;;;;;;4999928;28;95799;-71
2022/03/31 01:55:05;;;;;;;5.07;4.03;;;4.30;94.20;;;;;;5034938;28;95400;-70
2022/03/31 01:57:32;;;;;;;6.78;4.03;;;4.20;94.50;;;;;;5016901;28;92552;-70
2022/03/31 02:00:02;;;;;;;7.90;4.30;;;4.20;94.70;;;;;;5035043;28;93867;-70
2022/03/31 02:02:39;;;;;;;8.43;4.38;;;4.30;94.90;;;;;;5032337;28;92789;-70
2022/03/31 02:05:07;;;;;;;6.22;3.55;;;4.30;95.10;;;;;;5000217;28;94784;-70
2022/03/31 02:07:34;;;;;;;5.85;4.10;;;4.30;94.90;;;;;;4999811;28;97095;-71
2022/03/31 02:10:01;;;;;;;7.07;4.68;;;4.30;94.90;;;;;;5035433;28;92185;-70
2022/03/31 02:12:28;;;;;;;7.53;4.95;;;4.30;95.10;;;;;;5000122;28;95858;-71
2022/03/31 02:14:55;;;;;;;6.32;4.38;;;4.30;95.10;;;;;;5034525;28;92483;-71
2022/03/31 02:17:22;;;;;;;8.25;4.70;;;4.30;95.10;;;;;;5015517;28;94933;-69
2022/03/31 02:19:49;;;;;;;7.50;6.00;;;4.30;95.10;;;;;;5034595;27;92645;-70
2022/03/31 02:22:16;;;;;;;9.45;6.25;;;4.30;95.50;;;;;;5003009;28;95802;-71
2022/03/31 02:24:43;;;;;;;12.30;6.95;;;4.30;95.30;;;;;;5037969;28;92805;-71
2022/03/31 02:27:11;;;;;;;10.18;7.80;;;4.40;95.30;;;;;;5020565;28;93273;-70
2022/03/31 02:29:38;;;;;;;7.93;5.53;;;4.40;95.30;;;;;;5037841;28;92865;-70
2022/03/31 02:32:07;;;;;;;10.90;8.30;;;4.40;95.20;;;;;;5020063;28;92430;-70
2022/03/31 02:34:35;;;;;;;11.02;9.20;;;4.30;95.20;;;;;;5038398;28;92783;-70
2022/03/31 02:37:03;;;;;;;10.38;8.40;;;4.30;95.30;;;;;;5038152;28;92424;-71
2022/03/31 02:39:30;;;;;;;9.88;8.10;;;4.30;95.20;;;;;;5037723;28;97825;-70
2022/03/31 02:42:00;;;;;;;9.85;8.45;;;4.30;95.10;;;;;;5036247;28;94741;-70
2022/03/31 02:44:27;;;;;;;11.10;9.52;;;4.30;95.40;;;;;;5037915;28;95435;-69
2022/03/31 02:46:54;;;;;;;11.63;8.35;;;4.30;95.40;;;;;;5019590;28;92650;-69
2022/03/31 02:49:21;;;;;;;6.50;5.20;;;4.30;95.50;;;;;;5020074;28;92445;-69
2022/03/31 02:51:48;;;;;;;12.32;9.98;;;4.20;95.40;;;;;;5037428;28;93285;-70
2022/03/31 02:57:01;;;;;;;13.57;9.50;;;4.30;95.60;;;;;;5019445;28;92709;-70
2022/03/31 02:59:30;;;;;;;13.30;9.95;;;4.30;95.70;;;;;;5020180;28;91760;-69
2022/03/31 03:01:58;;;;;;;12.00;9.77;;;4.30;95.80;;;;;;5019035;28;95812;-71
2022/03/31 03:04:25;;;;;;;13.90;10.63;;;4.30;95.60;;;;;;5036784;28;106412;-69
2022/03/31 03:06:52;;;;;;;11.20;9.45;;;4.30;95.80;;;;;;5035417;28;94804;-69
2022/03/31 03:09:19;;;;;;;10.07;8.73;;;4.30;95.90;;;;;;5019267;28;92508;-69
2022/03/31 03:11:46;;;;;;;10.05;8.02;;;4.20;95.90;;;;;;5037125;28;93265;-69
2022/03/31 03:14:14;;;;;;;11.88;9.50;;;4.20;96.10;;;;;;5037357;28;93032;-71
2022/03/31 03:16:41;;;;;;;10.70;8.88;;;4.10;96.10;;;;;;5037565;28;92435;-71
2022/03/31 03:19:09;;;;;;;12.90;10.20;;;4.10;96.20;;;;;;5019187;28;92425;-69
2022/03/31 03:21:36;;;;;;;10.60;9.50;;;4.20;96.40;;;;;;5018059;28;95994;-69
2022/03/31 03:24:04;;;;;;;13.63;10.63;;;4.20;96.40;;;;;;5037242;28;93199;-69
2022/03/31 03:26:31;;;;;;;11.68;9.50;;;4.20;96.40;;;;;;5018790;28;92511;-70
2022/03/31 03:28:58;;;;;;;12.63;9.90;;;4.20;96.20;;;;;;5018868;28;92820;-70
2022/03/31 03:31:25;;;;;;;13.52;11.10;;;4.20;96.30;;;;;;5035640;27;95653;-70
2022/03/31 03:33:52;;;;;;;16.48;10.88;;;4.20;96.40;;;;;;5035500;28;95101;-69
2022/03/31 03:36:19;;;;;;;10.93;9.32;;;4.30;96.30;;;;;;5036571;28;92422;-69
2022/03/31 03:38:46;;;;;;;13.50;10.27;;;4.20;96.30;;;;;;5018605;28;92541;-71
2022/03/31 03:41:13;;;;;;;12.73;10.43;;;4.30;96.30;;;;;;5036303;28;92431;-70
2022/03/31 03:43:41;;;;;;;17.58;11.05;;;4.30;96.20;;;;;;5018402;28;95691;-69
2022/03/31 03:46:08;;;;;;;14.52;9.93;;;4.30;96.20;;;;;;5017761;28;92475;-69
2022/03/31 03:48:36;;;;;;;12.88;10.05;;;4.20;96.00;;;;;;5002096;28;91914;-69
2022/03/31 03:51:03;;;;;;;12.45;7.57;;;4.20;96.00;;;;;;5036095;28;92960;-71
2022/03/31 03:53:30;;;;;;;12.68;10.40;;;4.20;96.00;;;;;;5018563;28;95398;-69
2022/03/31 03:55:57;;;;;;;15.15;11.52;;;4.20;96.10;;;;;;5017008;28;94824;-71
2022/03/31 03:58:24;;;;;;;13.32;9.10;;;4.20;96.00;;;;;;5001337;28;92549;-71
2022/03/31 04:00:51;;;;;;;14.27;9.65;;;4.20;96.10;;;;;;5001601;28;93301;-69
2022/03/31 04:03:18;;;;;;;13.60;10.93;;;4.20;96.10;;;;;;5018273;28;92863;-69
2022/03/31 04:05:45;;;;;;;11.73;10.10;;;4.10;96.10;;;;;;5017892;28;92514;-70
2022/03/31 04:08:14;;;;;;;13.13;9.90;;;4.20;96.10;;;;;;5018007;28;92483;-70
2022/03/31 04:10:41;;;;;;;11.80;9.52;;;4.20;96.00;;;;;;5036311;28;93242;-71
2022/03/31 04:13:08;;;;;;;10.20;8.23;;;4.20;95.90;;;;;;5036656;28;93022;-69
2022/03/31 04:15:35;;;;;;;12.65;9.90;;;4.20;95.80;;;;;;5001716;28;93440;-70
2022/03/31 04:18:02;;;;;;;10.55;8.10;;;4.20;96.00;;;;;;5017896;28;92454;-71
2022/03/31 04:20:29;;;;;;;10.75;9.55;;;4.20;95.80;;;;;;5034839;28;95813;-71
2022/03/31 04:22:56;;;;;;;11.75;9.68;;;4.10;95.90;;;;;;5017544;28;98203;-69
2022/03/31 04:25:24;;;;;;;11.55;9.95;;;4.10;95.90;;;;;;5018826;28;92583;-69
2022/03/31 04:27:51;;;;;;;13.80;10.05;;;4.20;95.80;;;;;;5001899;28;92413;-69
2022/03/31 04:30:20;;;;;;;12.10;9.40;;;4.20;95.90;;;;;;5016772;28;98732;-69
2022/03/31 04:32:49;;;;;;;10.93;8.65;;;4.20;95.70;;;;;;5035982;28;92997;-70
2022/03/31 04:35:16;;;;;;;6.90;5.70;;;4.10;95.60;;;;;;5001639;28;92844;-71
2022/03/31 04:37:43;;;;;;;10.93;8.60;;;4.10;95.60;;;;;;5036619;28;91732;-71
2022/03/31 04:40:11;;;;;;;10.43;9.00;;;4.10;95.80;;;;;;5017064;28;109237;-70
2022/03/31 04:42:37;;;;;;;8.93;8.02;;;4.20;95.90;;;;;;5017397;28;95483;-70
2022/03/31 04:45:06;;;;;;;11.05;8.75;;;4.10;95.80;;;;;;5034463;28;95224;-70
2022/03/31 04:47:32;;;;;;;10.23;9.20;;;4.10;95.70;;;;;;5018278;28;92415;-70
2022/03/31 04:49:59;;;;;;;11.07;9.85;;;4.10;95.80;;;;;;5035681;28;93111;-70
2022/03/31 04:52:26;;;;;;;10.88;9.77;;;4.10;95.90;;;;;;5035897;28;93168;-70
2022/03/31 04:54:53;;;;;;;11.75;10.15;;;4.10;95.80;;;;;;5017974;28;92662;-70
2022/03/31 04:57:21;;;;;;;10.70;8.45;;;4.10;95.80;;;;;;5035253;28;92470;-70
2022/03/31 04:59:48;;;;;;;11.70;9.85;;;4.10;95.70;;;;;;5017832;28;93194;-70
2022/03/31 05:02:16;;;;;;;11.15;9.80;;;4.00;95.70;;;;;;5036032;28;92870;-70
2022/03/31 05:04:43;;;;;;;10.70;9.43;;;4.10;95.80;;;;;;5035800;28;92423;-70
2022/03/31 05:07:10;;;;;;;12.05;8.88;;;4.00;95.70;;;;;;5000101;28;104391;-70
2022/03/31 05:09:37;;;;;;;10.93;8.50;;;4.00;95.70;;;;;;5015956;28;98138;-70
2022/03/31 05:12:06;;;;;;;11.15;8.40;;;4.00;95.80;;;;;;5035077;28;95358;-70
2022/03/31 05:14:33;;;;;;;11.55;9.15;;;3.90;96.30;;;;;;5035734;28;92428;-70
2022/03/31 05:17:00;;;;;;;10.70;9.05;;;4.00;96.80;;;;;;5017685;28;92517;-70
2022/03/31 05:19:27;;;;;;;9.20;7.38;;;3.90;96.90;;;;;;5017544;28;93410;-70
2022/03/31 05:21:54;;;;;;;8.57;7.30;;;3.90;97.00;;;;;;5035448;28;93222;-70
2022/03/31 05:24:21;;;;;;;11.52;10.40;;;3.80;97.00;;;;;;5035198;28;92965;-70
2022/03/31 05:26:52;;;;;;;13.75;10.93;;;3.90;97.20;;;;;;5035495;28;91789;-70
2022/03/31 05:29:20;;;;;;;14.60;10.77;;;3.90;97.30;;;;;;5015940;28;95967;-69
2022/03/31 05:31:47;;;;;;;13.07;10.90;;;3.90;97.30;;;;;;5034350;28;93069;-69
2022/03/31 05:34:15;;;;;;;11.77;9.75;;;3.90;97.20;;;;;;5033584;28;95273;-69
2022/03/31 05:36:42;;;;;;;11.70;9.35;;;3.80;97.10;;;;;;5017349;28;92500;-69
2022/03/31 05:39:10;;;;;;;14.10;10.80;;;3.80;97.20;;;;;;5034910;28;93497;-69
2022/03/31 05:41:37;;;;;;;14.68;11.25;;;3.80;97.10;;;;;;5015998;28;98826;-69
2022/03/31 05:44:05;;;;;;;10.70;9.40;;;3.80;97.60;;;;;;5016336;28;93819;-69
2022/03/31 05:46:32;;;;;;;11.55;9.25;;;3.80;97.40;;;;;;5017526;28;92415;-69
2022/03/31 05:48:59;;;;;;;14.43;11.88;;;3.80;97.40;;;;;;5017435;28;93255;-69
2022/03/31 05:51:26;;;;;;;16.23;11.05;;;3.70;97.40;;;;;;5034663;28;93161;-70
2022/03/31 05:53:52;;;;;;;15.88;12.00;;;3.70;97.40;;;;;;5000173;28;92540;-71
2022/03/31 05:56:20;;;;;;;12.55;10.27;;;3.70;97.50;;;;;;5036290;27;92448;-70
2022/03/31 05:58:47;;;;;;;13.13;11.68;;;3.70;97.40;;;;;;5002276;28;96162;-70
2022/03/31 06:01:14;;;;;;;14.13;11.10;;;3.70;97.40;;;;;;5018928;28;98232;-70
2022/03/31 06:03:41;;;;;;;14.45;11.48;;;3.80;97.40;;;;;;5037852;28;92468;-71
2022/03/31 06:06:09;;;;;;;13.27;10.38;;;3.70;97.30;;;;;;5019279;28;92497;-71
2022/03/31 06:08:36;;;;;;;15.32;11.35;;;3.70;97.40;;;;;;5037664;28;93313;-69
2022/03/31 06:11:03;;;;;;;14.25;10.90;;;3.80;97.40;;;;;;5019724;28;93017;-69
2022/03/31 06:13:30;;;;;;;14.55;12.13;;;3.80;97.20;;;;;;5037703;28;92365;-69
2022/03/31 06:15:57;;;;;;;12.38;9.70;;;3.80;97.00;;;;;;5038078;28;91734;-69
2022/03/31 06:18:24;;;;;;;10.65;7.32;;;3.90;96.90;;;;;;5020051;28;93190;-69
2022/03/31 06:20:51;;;;;;;15.82;11.77;;;3.80;96.60;;;;;;5019873;28;93389;-69
2022/03/31 06:23:18;;;;;;;14.23;10.35;;;3.80;96.70;;;;;;5018067;28;94845;-69
2022/03/31 06:25:45;;;;;;;14.20;11.05;;;3.90;96.80;;;;;;5019904;28;93060;-69
2022/03/31 06:28:14;;;;;;;13.10;8.80;;;3.90;96.70;;;;;;5018936;28;94485;-69
2022/03/31 06:30:41;;;;;;;13.30;10.77;;;3.80;96.60;;;;;;5037605;28;97205;-69
2022/03/31 06:33:08;;;;;;;12.85;10.13;;;3.90;96.60;;;;;;5018997;28;92838;-69
2022/03/31 06:35:36;;;;;;;13.88;11.48;;;3.90;96.60;;;;;;5037478;28;92406;-69
2022/03/31 06:38:03;;;;;;;16.30;12.52;;;3.90;96.60;;;;;;5002481;28;94859;-70
2022/03/31 06:40:31;;;;;;;18.17;14.50;;;4.00;96.70;;;;;;5019619;28;92765;-69
2022/03/31 06:42:58;;;;;;;15.38;10.85;;;4.00;96.50;;;;;;5037331;28;92456;-69
2022/03/31 06:45:25;;;;;;;18.05;13.20;;;4.10;96.80;;;;;;5037192;28;92482;-69
2022/03/31 06:47:55;;;;;;;11.13;9.13;;;4.10;96.70;;;;;;5017704;28;96601;-70
2022/03/31 06:50:26;;;;;;;18.42;14.95;;;4.10;96.60;;;;;;5037404;28;95489;-69
2022/03/31 06:52:56;;;;;;;17.42;12.45;;;4.20;96.60;;;;;;5037378;28;92484;-70
2022/03/31 06:55:23;;;;;;;20.05;14.23;;;4.20;96.60;;;;;;5003408;28;92378;-69
2022/03/31 06:57:50;;;;;;;18.48;14.27;;;4.20;96.60;;;;;;5036965;28;94071;-70
2022/03/31 07:00:17;;;;;;;23.08;17.30;;;4.30;96.60;;;;;;5018558;28;93010;-69
2022/03/31 07:02:44;;;;;;;21.42;18.30;;;4.30;96.50;;;;;;4985732;28;92607;-69
2022/03/31 07:05:12;;;;;;;21.90;16.45;;;4.40;96.40;;;;;;5037252;28;91868;-70
2022/03/31 07:07:41;;;;;;;19.95;15.88;;;4.30;96.20;;;;;;5019026;28;94383;-70
2022/03/31 07:10:09;;;;;;;19.10;14.00;;;4.30;96.20;;;;;;5036913;28;93060;-70
2022/03/31 07:12:39;;;;;;;22.17;16.25;;;4.30;96.20;;;;;;5001452;28;94893;-70
2022/03/31 07:15:07;;;;;;;22.40;15.10;;;4.30;96.20;;;;;;5037042;28;92441;-70
2022/03/31 07:17:35;;;;;;;24.52;16.77;;;4.30;96.40;;;;;;5018637;28;93234;-70
2022/03/31 07:20:03;;;;;;;22.23;15.63;;;4.30;96.40;;;;;;5018622;28;94559;-69
2022/03/31 07:22:30;;;;;;;23.13;16.45;;;4.30;96.10;;;;;;5001474;28;92480;-70
2022/03/31 07:24:57;;;;;;;22.00;16.60;;;4.30;96.40;;;;;;5036870;28;92421;-70
2022/03/31 07:27:24;;;;;;;21.65;15.65;;;4.40;96.50;;;;;;5036038;28;93306;-69
2022/03/31 07:29:51;;;;;;;17.50;14.30;;;4.40;96.60;;;;;;5017517;28;95542;-69
2022/03/31 07:32:18;;;;;;;21.95;17.55;;;4.40;96.50;;;;;;5001914;28;92553;-70
2022/03/31 07:34:45;;;;;;;21.50;16.17;;;4.40;96.40;;;;;;5018692;28;92472;-69
2022/03/31 07:37:12;;;;;;;21.63;16.13;;;4.50;96.40;;;;;;4984027;28;95620;-71
2022/03/31 07:39:41;;;;;;;23.52;17.67;;;4.50;96.40;;;;;;5017786;28;98637;-71
2022/03/31 07:42:08;;;;;;;22.58;16.13;;;4.50;96.50;;;;;;5018495;28;92511;-71
2022/03/31 07:44:35;;;;;;;22.95;14.75;;;4.50;96.50;;;;;;5017788;28;92554;-70
2022/03/31 07:47:03;;;;;;;26.58;16.67;;;4.50;96.40;;;;;;5018402;28;93542;-69
2022/03/31 07:49:30;;;;;;;24.35;16.25;;;4.50;96.60;;;;;;5018013;28;93110;-69
2022/03/31 07:52:00;;;;;;;24.50;18.67;;;4.50;96.80;;;;;;5036597;28;92355;-68
2022/03/31 07:54:27;;;;;;;27.30;18.67;;;4.50;96.60;;;;;;5036154;28;91701;-69
2022/03/31 07:56:55;;;;;;;25.58;14.95;;;4.50;96.70;;;;;;5036204;28;93270;-69
2022/03/31 07:59:25;;;;;;;27.55;16.55;;;4.40;96.60;;;;;;5035875;28;92463;-69
2022/03/31 08:01:53;;;;;;;22.90;16.25;;;4.40;96.70;;;;;;5035136;28;94780;-69
2022/03/31 08:04:20;;;;;;;24.25;15.73;;;4.40;96.60;;;;;;5035984;28;92506;-69
2022/03/31 08:06:47;;;;;;;22.17;16.10;;;4.40;96.60;;;;;;5035859;28;93472;-69
2022/03/31 08:09:17;;;;;;;24.90;18.23;;;4.40;96.60;;;;;;5001110;28;95475;-69
2022/03/31 08:11:45;;;;;;;23.13;15.77;;;4.40;96.50;;;;;;5018364;28;92498;-69
2022/03/31 08:14:12;;;;;;;23.45;17.25;;;4.40;96.60;;;;;;5001088;28;92485;-69
2022/03/31 08:16:39;;;;;;;17.38;12.18;;;4.40;96.50;;;;;;5035635;28;93846;-69
2022/03/31 08:19:06;;;;;;;22.35;14.88;;;4.40;96.60;;;;;;5035583;27;93018;-69
2022/03/31 08:21:33;;;;;;;20.15;13.77;;;4.40;96.50;;;;;;5035374;28;92450;-69
2022/03/31 08:24:00;;;;;;;20.35;12.98;;;4.40;96.50;;;;;;5000988;28;93008;-69
2022/03/31 08:26:27;;;;;;;17.08;11.38;;;4.30;96.50;;;;;;5034070;28;95539;-68
2022/03/31 08:28:54;;;;;;;15.95;11.93;;;4.40;96.70;;;;;;5000681;28;95322;-68
2022/03/31 08:31:21;;;;;;;13.90;10.82;;;4.30;96.20;;;;;;5017621;28;92455;-69
2022/03/31 08:33:48;;;;;;;14.60;9.93;;;4.20;96.20;;;;;;5035153;28;104264;-69
2022/03/31 08:36:15;;;;;;;9.60;8.60;;;4.20;96.20;;;;;;5036170;28;93285;-69
2022/03/31 08:38:43;;;;;;;8.07;6.50;;;4.10;96.50;;;;;;5017717;28;93051;-69
2022/03/31 08:41:12;;;;;;;7.65;6.80;;;4.10;96.10;;;;;;5018124;28;92500;-69
2022/03/31 08:43:42;;;;;;;6.45;5.63;;;4.10;96.30;;;;;;5036111;28;91723;-69
2022/03/31 08:46:10;;;;;;;7.13;6.20;;;4.00;96.00;;;;;;5035791;28;93261;-68
2022/03/31 08:48:38;;;;;;;7.25;6.00;;;4.00;95.90;;;;;;5035682;28;93025;-69
2022/03/31 08:51:05;;;;;;;8.43;6.60;;;3.90;95.90;;;;;;5034995;28;95142;-70
2022/03/31 08:53:33;;;;;;;8.98;6.82;;;3.90;96.10;;;;;;5000892;28;92505;-69
2022/03/31 08:56:00;;;;;;;11.80;9.15;;;3.90;96.10;;;;;;5017733;28;93255;-69
2022/03/31 08:58:27;;;;;;;9.70;7.07;;;4.00;96.30;;;;;;5017474;28;93061;-69
2022/03/31 09:00:54;;;;;;;10.15;7.57;;;3.90;96.10;;;;;;5036097;28;92827;-69
2022/03/31 09:03:31;;;;;;;10.00;7.07;;;4.00;96.00;;;;;;5035725;28;92518;-69
2022/03/31 09:05:58;;;;;;;10.68;8.63;;;3.80;95.80;;;;;;5035817;28;93193;-69
2022/03/31 09:08:25;;;;;;;10.55;8.85;;;3.80;96.00;;;;;;5017386;28;95741;-69
2022/03/31 09:10:58;;;;;;;10.88;8.20;;;3.90;96.00;;;;;;5017748;28;92466;-69
2022/03/31 09:13:30;;;;;;;10.77;8.60;;;3.90;96.00;;;;;;5018540;28;92465;-69
2022/03/31 09:16:04;;;;;;;7.75;6.35;;;3.90;96.10;;;;;;5016285;28;94987;-69
2022/03/31 09:18:32;;;;;;;;;;;3.90;96.00;;;;;;5035795;28;93990;-69
2022/03/31 09:21:02;;;;;;;8.15;5.82;;;3.90;96.20;;;;;;5018391;28;92383;-69
2022/03/31 09:23:41;;;;;;;6.85;5.55;;;3.80;96.10;;;;;;5017687;28;92569;-69
2022/03/31 09:26:14;;;;;;;7.60;6.68;;;3.80;95.90;;;;;;5016816;28;95905;-69
2022/03/31 09:28:47;;;;;;;8.50;6.32;;;3.70;95.80;;;;;;5034646;28;92575;-69
2022/03/31 09:31:25;;;;;;;7.90;7.00;;;3.70;96.00;;;;;;5020563;28;92953;-69
2022/03/31 09:33:57;;;;;;;9.23;7.25;;;3.60;95.80;;;;;;5039282;28;91766;-69
2022/03/31 09:36:26;;;;;;;9.32;7.65;;;3.60;95.80;;;;;;5038835;28;92883;-69
2022/03/31 09:39:03;;;;;;;6.50;5.63;;;3.50;96.00;;;;;;5020368;28;95489;-69
2022/03/31 09:41:36;;;;;;;10.98;7.85;;;3.50;95.90;;;;;;5019164;28;94872;-69
2022/03/31 09:44:06;;;;;;;8.98;7.25;;;3.50;96.00;;;;;;5020641;28;92563;-69
2022/03/31 09:46:38;;;;;;;9.57;7.43;;;3.50;96.10;;;;;;5038547;28;93233;-69
2022/03/31 09:49:11;;;;;;;5.70;4.07;;;3.60;96.20;;;;;;5038853;28;92385;-69
2022/03/31 09:51:39;;;;;;;9.57;7.40;;;3.60;96.00;;;;;;5038450;28;92437;-69
2022/03/31 09:54:06;;;;;;;8.50;6.30;;;3.50;95.90;;;;;;5020838;28;92513;-69
2022/03/31 09:56:34;;;;;;;8.80;6.65;;;3.50;95.90;;;;;;5020545;28;93342;-69
2022/03/31 09:59:03;;;;;;;13.20;9.15;;;3.40;96.00;;;;;;5038887;28;93049;-70
2022/03/31 10:01:31;;;;;;;11.55;8.55;;;3.40;96.10;;;;;;5038498;28;92885;-70
2022/03/31 10:03:58;;;;;;;12.38;8.55;;;3.40;96.00;;;;;;5038733;28;92874;-69
2022/03/31 10:06:25;;;;;;;15.20;8.98;;;3.40;96.00;;;;;;5037269;28;95671;-69
2022/03/31 10:08:53;;;;;;;11.88;9.50;;;3.30;95.90;;;;;;5037887;28;95475;-69
2022/03/31 10:11:23;;;;;;;12.95;8.75;;;3.30;96.00;;;;;;5038698;28;92409;-69
2022/03/31 10:14:06;;;;;;;11.98;7.55;;;3.30;96.00;;;;;;5037822;28;92438;-69
2022/03/31 10:16:44;;;;;;;12.48;8.48;;;3.20;95.90;;;;;;5038494;28;93189;-69
2022/03/31 10:19:11;;;;;;;17.13;8.88;;;3.20;96.10;;;;;;5038379;28;93101;-69
2022/03/31 10:21:38;;;;;;;12.63;8.57;;;3.20;96.30;;;;;;5020488;28;92987;-69
2022/03/31 10:27:01;;;;;;;12.98;7.60;;;3.10;96.20;;;;;;5038042;28;92388;-69
2022/03/31 10:29:38;;;;;;;14.25;7.82;;;3.10;96.20;;;;;;5019437;28;95735;-69
2022/03/31 10:32:16;;;;;;;11.75;7.90;;;3.10;96.30;;;;;;5037188;28;94873;-69
2022/03/31 10:34:45;;;;;;;10.10;7.20;;;3.10;96.20;;;;;;5020113;28;92920;-69
2022/03/31 10:37:12;;;;;;;7.88;5.55;;;3.00;96.20;;;;;;5002974;28;95809;-69
2022/03/31 10:39:51;;;;;;;10.75;7.55;;;2.90;96.20;;;;;;5037782;28;92853;-69
2022/03/31 10:42:18;;;;;;;9.27;6.30;;;3.00;96.50;;;;;;5037553;27;92491;-69
2022/03/31 10:44:45;;;;;;;12.60;8.40;;;2.90;96.50;;;;;;5019528;28;92906;-68
2022/03/31 10:47:12;;;;;;;14.80;8.80;;;2.90;96.80;;;;;;5037833;28;93171;-69
2022/03/31 10:49:50;;;;;;;11.02;6.72;;;2.80;96.80;;;;;;5037760;28;92242;-69
2022/03/31 10:52:23;;;;;;;10.52;7.55;;;2.70;96.90;;;;;;5020429;28;92532;-68
2022/03/31 10:54:51;;;;;;;12.15;7.07;;;2.70;97.00;;;;;;5019535;28;92506;-68
2022/03/31 10:57:19;;;;;;;12.98;8.25;;;2.70;97.20;;;;;;5018508;28;95493;-69
2022/03/31 10:59:48;;;;;;;14.07;7.28;;;2.60;97.20;;;;;;5013256;28;95479;-71
2022/03/31 11:02:19;;;;;;;16.08;8.38;;;2.60;97.70;;;;;;5027588;27;92576;-71
2022/03/31 11:04:50;;;;;;;11.73;8.50;;;2.60;97.50;;;;;;5020662;28;93271;-70
2022/03/31 11:07:24;;;;;;;14.88;8.65;;;2.70;97.60;;;;;;5021139;28;93472;-71
2022/03/31 11:10:08;;;;;;;14.10;7.82;;;2.80;97.70;;;;;;5020563;28;93364;-74
2022/03/31 11:12:36;;;;;;;;;;;2.80;97.70;;;;;;4994023;28;93722;-73
2022/03/31 11:15:08;;;;;;;11.20;7.88;;;2.70;97.60;;;;;;5038912;28;91706;-67
2022/03/31 11:17:38;;;;;;;11.95;8.68;;;2.80;97.70;;;;;;5019139;28;95755;-68
2022/03/31 11:20:17;;;;;;;11.40;7.88;;;2.80;97.70;;;;;;5035302;28;103069;-68
2022/03/31 11:22:48;;;;;;;10.10;7.68;;;2.90;98.00;;;;;;5034422;28;94874;-68
2022/03/31 11:25:17;;;;;;;14.65;8.70;;;2.90;98.00;;;;;;5037240;28;92444;-68
2022/03/31 11:27:46;;;;;;;14.65;10.10;;;3.00;98.00;;;;;;5036925;28;93302;-68
2022/03/31 11:30:25;;;;;;;12.77;8.45;;;3.10;98.00;;;;;;5034961;28;94368;-68
2022/03/31 11:32:55;;;;;;;13.57;9.05;;;3.10;97.90;;;;;;5036211;28;92687;-68
2022/03/31 11:35:25;;;;;;;11.48;8.15;;;3.10;97.80;;;;;;5019038;28;93122;-68
2022/03/31 11:38:00;;;;;;;14.45;10.50;;;3.20;97.90;;;;;;5035461;28;95787;-68
2022/03/31 11:40:36;;;;;;;14.85;9.88;;;3.30;98.00;;;;;;5018363;28;98620;-68
2022/03/31 11:43:05;;;;;;;13.05;9.65;;;3.30;98.30;;;;;;5018974;28;92489;-68
2022/03/31 11:45:38;;;;;;;16.45;11.55;;;3.30;97.90;;;;;;5018626;28;92435;-68
2022/03/31 11:48:08;;;;;;;18.10;14.07;;;3.30;97.60;;;;;;5034884;28;95536;-67
2022/03/31 11:50:38;;;;;;;17.42;12.52;;;3.30;97.70;;;;;;5035946;28;95478;-68
2022/03/31 11:53:29;;;;;;;23.98;15.65;;;3.30;97.60;;;;;;5034536;27;92496;-68
2022/03/31 11:55:58;;;;;;;23.15;15.63;;;3.40;97.60;;;;;;5036069;28;92446;-68
2022/03/31 11:58:32;;;;;;;25.05;16.38;;;3.30;97.40;;;;;;5034773;28;93108;-68
2022/03/31 12:00:59;;;;;;;26.05;18.17;;;3.40;97.40;;;;;;5017753;28;95656;-68
2022/03/31 12:03:34;;;;;;;27.52;17.25;;;3.40;97.60;;;;;;5036189;28;92431;-68
2022/03/31 12:06:03;;;;;;;26.63;17.85;;;3.50;97.50;;;;;;5018515;28;91832;-68
2022/03/31 12:08:31;;;;;;;29.00;21.00;;;3.50;97.40;;;;;;5034138;28;103312;-68
2022/03/31 12:10:58;;;;;;;24.15;15.43;;;3.60;97.40;;;;;;5017221;28;94654;-68
2022/03/31 12:13:27;;;;;;;29.17;20.95;;;3.70;97.30;;;;;;5033501;28;94936;-68
2022/03/31 12:16:05;;;;;;;34.60;25.00;;;3.80;97.40;;;;;;5017816;28;92642;-68
2022/03/31 12:18:35;;;;;;;32.15;22.52;;;3.80;97.30;;;;;;5034562;28;94340;-68
2022/03/31 12:21:06;;;;;;;35.83;24.30;;;3.90;97.30;;;;;;5035325;28;93105;-68
2022/03/31 12:23:41;;;;;;;33.88;24.50;;;3.90;97.40;;;;;;5034756;28;92561;-68
2022/03/31 12:26:28;;;;;;;35.53;25.95;;;4.00;97.30;;;;;;5034272;28;92872;-68
2022/03/31 12:28:58;;;;;;;32.80;24.77;;;4.00;97.30;;;;;;5033315;28;95809;-68
2022/03/31 12:31:29;;;;;;;27.63;20.88;;;3.90;97.20;;;;;;5035912;28;93117;-68
2022/03/31 12:33:58;;;;;;;29.23;19.58;;;3.90;97.90;;;;;;5034156;28;92480;-68
2022/03/31 12:36:26;;;;;;;38.28;24.23;;;3.90;97.90;;;;;;5035272;28;101150;-68
2022/03/31 12:38:56;;;;;;;29.92;19.70;;;3.90;97.80;;;;;;5034076;28;95602;-68
2022/03/31 12:41:34;;;;;;;34.47;21.08;;;3.90;97.80;;;;;;5017319;28;95405;-68
2022/03/31 12:44:17;;;;;;;34.25;22.13;;;4.00;97.80;;;;;;5016925;28;92473;-68
2022/03/31 12:46:56;;;;;;;33.28;21.35;;;4.00;97.80;;;;;;5035659;28;92498;-68
2022/03/31 12:49:25;;;;;;;28.83;20.17;;;4.00;97.90;;;;;;5033635;28;99629;-68
2022/03/31 12:51:54;;;;;;;24.23;18.13;;;4.00;97.90;;;;;;5034955;28;93287;-68
2022/03/31 12:54:25;;;;;;;25.15;20.33;;;4.00;97.80;;;;;;5000241;28;92505;-68
2022/03/31 12:56:58;;;;;;;28.67;19.83;;;4.10;97.70;;;;;;5035610;28;91682;-68
2022/03/31 12:59:27;;;;;;;29.65;21.90;;;4.20;97.70;;;;;;5035366;28;93347;-68